MSC Ingrid — HOHA — position and weather

sailwx.info

Track history (hours):
 
Tides and Currents Weather Stations Pressure Air Temp Water Temp Dewpoint Dewpoint Depression Visibility Wind Speed Wind Dir Waves Ship Positions

MSC Ingrid

Last reported at 2017-Jan-23 10:33 UTC. Time now 2017-Jan-23 10:39 UTC.
Position N 51°18' E 004°16'.

Length 294 m; draft 10.2 m.

Type: Ship (hazmat cat A). MMSI: 354505000.

Date/timePositionNaut miles runAvg speedWind from/ knotsBaromVisibWave heightAir tempDewpointWater temp
2017-Jan-23 10:33N 51°18' E 004°16'0 0.0
2017-Jan-23 09:30N 51°18' E 004°16'0 0.0
2017-Jan-23 08:33N 51°18' E 004°16'0 0.0
2017-Jan-23 07:33N 51°18' E 004°16'0 0.0
2017-Jan-23 06:33N 51°18' E 004°16'0 0.0
2017-Jan-23 05:33N 51°18' E 004°16'0 0.0
2017-Jan-23 04:30N 51°18' E 004°16'0 0.0
2017-Jan-23 03:33N 51°18' E 004°16'0 0.0
2017-Jan-23 02:33N 51°18' E 004°16'0 0.0
2017-Jan-23 01:33N 51°18' E 004°16'0 0.0
2017-Jan-23 00:33N 51°18' E 004°16'0 0.0
2017-Jan-22 23:33N 51°18' E 004°16'0 0.0
2017-Jan-22 22:33N 51°18' E 004°16'0 0.1
2017-Jan-22 21:33N 51°18' E 004°16'0 0.1
2017-Jan-22 20:33N 51°18' E 004°16'0 0.0
2017-Jan-22 19:33N 51°18' E 004°16'0 0.0
2017-Jan-22 18:33N 51°18' E 004°16'0 0.0
2017-Jan-22 17:33N 51°18' E 004°16'0 0.0
2017-Jan-22 16:33N 51°18' E 004°16'0 0.0
2017-Jan-22 15:33N 51°18' E 004°16'0 0.1
2017-Jan-22 14:33N 51°18' E 004°16'0 0.0
2017-Jan-22 13:32N 51°18' E 004°16'0 0.0
2017-Jan-22 12:32N 51°18' E 004°16'0 0.0
2017-Jan-22 11:32N 51°18' E 004°16'0 0.0
2017-Jan-22 10:32N 51°18' E 004°16'0 0.0
2017-Jan-22 09:32N 51°18' E 004°16'0 0.0
2017-Jan-22 08:32N 51°18' E 004°16'0 0.4
2017-Jan-22 07:34N 51°18' E 004°16'7 6.5
2017-Jan-22 06:33N 51°22' E 004°08'8 8.1
2017-Jan-22 05:33N 51°22' E 003°55'1111.3
2017-Jan-22 04:33N 51°26' E 003°38'1313.3
2017-Jan-22 03:33N 51°24' E 003°17'1110.6
2017-Jan-22 02:33N 51°29' E 003°02'1715.5
2017-Jan-22 01:29N 51°44' E 003°13'5 4.7
2017-Jan-22 00:31N 51°47' E 003°18'0 0.0
2017-Jan-21 23:25N 51°47' E 003°19'0 0.0
2017-Jan-21 21:25N 51°47' E 003°19'0 0.0
2017-Jan-21 19:31N 51°47' E 003°19'19 9.0
2017-Jan-21 17:23N 52°03' E 003°35'1215.0
2017-Jan-21 16:33N 52°02' E 003°55'7 7.3
2017-Jan-21 15:33N 51°58' E 004°04'0 0.0
2017-Jan-21 14:33N 51°58' E 004°04'0 0.0
2017-Jan-21 13:33N 51°58' E 004°04'0 0.0
2017-Jan-21 12:33N 51°58' E 004°04'0 0.0
2017-Jan-21 11:33N 51°58' E 004°04'0 0.0
2017-Jan-21 10:33N 51°58' E 004°04'0 0.0
2017-Jan-21 09:33N 51°58' E 004°04'0 0.0
2017-Jan-21 08:33N 51°58' E 004°04'0 0.0
2017-Jan-21 07:32N 51°58' E 004°04'0 0.0
2017-Jan-21 06:32N 51°58' E 004°04'0 0.0
2017-Jan-21 05:32N 51°58' E 004°04'0 0.0
2017-Jan-21 04:33N 51°58' E 004°04'0 0.0
2017-Jan-21 03:33N 51°58' E 004°04'0 0.0
2017-Jan-21 02:33N 51°58' E 004°04'0 0.0
2017-Jan-21 01:33N 51°58' E 004°04'0 0.0
2017-Jan-21 00:33N 51°58' E 004°04'0 0.0
2017-Jan-20 23:33N 51°58' E 004°04'0 0.0
2017-Jan-20 22:32N 51°58' E 004°04'0 0.0
2017-Jan-20 21:33N 51°58' E 004°04'0 0.0
2017-Jan-20 20:32N 51°58' E 004°04'0 0.0
2017-Jan-20 19:32N 51°58' E 004°04'1 1.4
2017-Jan-20 18:33N 51°59' E 004°04'1110.6
2017-Jan-20 17:33N 51°60' E 003°47'8 8.4
2017-Jan-20 16:33N 51°56' E 003°35'2 2.0
2017-Jan-20 15:33N 51°54' E 003°34'0 0.0
2017-Jan-20 14:33N 51°54' E 003°34'0 0.0
2017-Jan-20 13:33N 51°54' E 003°34'0 0.0
2017-Jan-20 12:33N 51°54' E 003°34'0 0.0
2017-Jan-20 11:33N 51°54' E 003°34'0 0.1
2017-Jan-20 10:34N 51°54' E 003°34'0 0.1
2017-Jan-20 09:34N 51°54' E 003°34'0 0.1
2017-Jan-20 08:34N 51°54' E 003°34'0 0.0
2017-Jan-20 07:33N 51°54' E 003°34'0 0.0
2017-Jan-20 06:33N 51°54' E 003°34'0 0.2
2017-Jan-20 05:34N 51°54' E 003°34'0 0.1
2017-Jan-20 04:34N 51°54' E 003°34'0 0.1
2017-Jan-20 03:33N 51°54' E 003°34'0 0.0
2017-Jan-20 02:33N 51°54' E 003°34'0 0.0
2017-Jan-20 01:34N 51°54' E 003°34'0 0.0
2017-Jan-20 00:34N 51°54' E 003°34'0 0.0
2017-Jan-19 23:33N 51°54' E 003°34'0 0.0
2017-Jan-19 22:33N 51°54' E 003°34'0 0.1
2017-Jan-19 21:33N 51°54' E 003°34'0 0.1
2017-Jan-19 20:33N 51°54' E 003°34'0 0.0
2017-Jan-19 19:34N 51°54' E 003°34'0 0.0
2017-Jan-19 18:34N 51°54' E 003°34'0 0.1
2017-Jan-19 17:33N 51°54' E 003°34'0 0.2
2017-Jan-19 16:33N 51°54' E 003°34'0 0.0
2017-Jan-19 15:33N 51°54' E 003°34'0 0.0
2017-Jan-19 14:34N 51°54' E 003°34'0 0.0
2017-Jan-19 13:34N 51°54' E 003°34'0 0.0
2017-Jan-19 12:34N 51°54' E 003°34'0 0.1
2017-Jan-19 11:34N 51°54' E 003°34'0 0.1
2017-Jan-19 10:29N 51°54' E 003°34'0 0.1
2017-Jan-19 09:32N 51°54' E 003°34'0 0.1
2017-Jan-19 08:32N 51°54' E 003°34'0 0.0
2017-Jan-19 07:32N 51°54' E 003°34'0 0.0
2017-Jan-19 06:32N 51°54' E 003°34'0 0.0
2017-Jan-19 05:32N 51°54' E 003°34'0 0.2
2017-Jan-19 04:32N 51°54' E 003°34'0 0.1
2017-Jan-19 03:32N 51°54' E 003°34'0 0.0
2017-Jan-19 02:32N 51°54' E 003°34'0 0.0
2017-Jan-19 01:32N 51°54' E 003°34'0 0.0
2017-Jan-19 00:32N 51°54' E 003°34'0 0.0
2017-Jan-18 23:32N 51°54' E 003°34'0 0.0
2017-Jan-18 22:32N 51°54' E 003°34'0 0.1
2017-Jan-18 21:32N 51°54' E 003°34'0 0.1
2017-Jan-18 20:33N 51°54' E 003°34'5 4.7
2017-Jan-18 19:33N 51°55' E 003°27'1616.4
2017-Jan-18 18:33N 51°51' E 003°01'1818.3
2017-Jan-18 17:33N 51°51' E 002°31'1818.3
2017-Jan-18 16:33N 51°51' E 002°02'1616.4
2017-Jan-18 15:33N 51°52' E 001°35'1110.7
2017-Jan-18 14:34N 51°55' E 001°19'3 2.7
2017-Jan-18 13:33N 51°58' E 001°17'0 0.0
2017-Jan-18 12:33N 51°58' E 001°17'0 0.0
2017-Jan-18 11:33N 51°58' E 001°17'0 0.0
2017-Jan-18 10:33N 51°58' E 001°17'0 0.0
2017-Jan-18 09:33N 51°58' E 001°17'0 0.0
2017-Jan-18 08:33N 51°58' E 001°17'0 0.0
2017-Jan-18 07:33N 51°58' E 001°17'0 0.0
2017-Jan-18 06:34N 51°58' E 001°17'4 3.7
2017-Jan-18 05:34N 51°56' E 001°22'1211.8
2017-Jan-18 04:33N 51°52' E 001°40'1312.5
2017-Jan-18 03:33N 51°41' E 001°49'1716.8
2017-Jan-18 02:33N 51°26' E 002°02'1313.4
2017-Jan-18 01:33N 51°12' E 001°59'1716.6
2017-Jan-18 00:33N 51°03' E 001°37'1514.8
2017-Jan-17 23:33N 50°51' E 001°24'3115.2
2017-Jan-17 21:30N 50°29' E 000°49'1816.1
2017-Jan-17 20:23N 50°24' E 000°22'1315.8
2017-Jan-17 19:33N 50°20' E 000°02'1515.5
2017-Jan-17 18:33N 50°16' W 000°21'1514.9
2017-Jan-17 17:33N 50°12' W 000°44'1414.5
2017-Jan-17 16:33N 50°08' W 001°05'1515.0
2017-Jan-17 15:34N 50°04' W 001°28'1514.9
2017-Jan-17 14:33N 49°60' W 001°50'1615.7
2017-Jan-17 13:34N 49°55' W 002°13'1916.7
2017-Jan-17 12:25N 49°49' W 002°42'1717.0
2017-Jan-17 11:25N 49°45' W 003°07'1617.3
2017-Jan-17 10:31N 49°37' W 003°28'3618.3
2017-Jan-17 08:33N 49°17' W 004°13'3718.5
2017-Jan-17 06:33N 48°58' W 005°02'1918.6
2017-Jan-17 05:33N 48°49' W 005°27'1817.9
2017-Jan-17 04:33N 48°37' W 005°46'57016.5
2017-Jan-15 18:04N 39°34' W 009°52'814.8
2017-Jan-15 17:33N 39°27' W 009°51'1515.0
2017-Jan-15 16:33N 39°12' W 009°51'1515.1
2017-Jan-15 15:33N 38°57' W 009°51'1515.2
2017-Jan-15 14:33N 38°42' W 009°50'1515.2
2017-Jan-15 13:33N 38°27' W 009°44'1515.2
2017-Jan-15 12:33N 38°17' W 009°30'1615.5
2017-Jan-15 11:33N 38°07' W 009°15'1616.3
2017-Jan-15 10:34N 37°57' W 008°58'6 6.0
2017-Jan-15 09:33N 37°56' W 008°51'0 0.0
2017-Jan-15 08:33N 37°56' W 008°51'0 0.0
2017-Jan-15 07:33N 37°56' W 008°51'0 0.0
2017-Jan-15 06:30N 37°56' W 008°51'0 0.0
2017-Jan-15 05:33N 37°56' W 008°51'0 0.0
2017-Jan-15 04:33N 37°56' W 008°51'0 0.0
2017-Jan-15 03:33N 37°56' W 008°51'0 0.0
2017-Jan-15 02:33N 37°56' W 008°51'0 0.0
2017-Jan-15 01:33N 37°56' W 008°51'0 0.0
2017-Jan-15 00:33N 37°56' W 008°51'0 0.2
2017-Jan-14 23:33N 37°56' W 008°51'4 4.3
2017-Jan-14 22:33N 37°52' W 008°52'1515.1
2017-Jan-14 21:33N 37°38' W 009°01'1716.6
2017-Jan-14 20:33N 37°23' W 009°10'32415.4
2017-Jan-13 23:33N 36°23' W 002°31'  
Track history (hours):
 
Tides and Currents Weather Stations Pressure Air Temp Water Temp Dewpoint Dewpoint Depression Visibility Wind Speed Wind Dir Waves Ship Positions

MSC Ingrid

Last reported at 2017-Jan-23 10:33 UTC. Time now 2017-Jan-23 10:39 UTC.
Position N 51°18' E 004°16'.

Length 294 m; draft 10.2 m.

Type: Ship (hazmat cat A). MMSI: 354505000.

Date/timePositionNaut miles runAvg speedWind from/ knotsBaromVisibWave heightAir tempDewpointWater temp
2017-Jan-23 10:33N 51°18' E 004°16'0 0.0
2017-Jan-23 09:30N 51°18' E 004°16'0 0.0
2017-Jan-23 08:33N 51°18' E 004°16'0 0.0
2017-Jan-23 07:33N 51°18' E 004°16'0 0.0
2017-Jan-23 06:33N 51°18' E 004°16'0 0.0
2017-Jan-23 05:33N 51°18' E 004°16'0 0.0
2017-Jan-23 04:30N 51°18' E 004°16'0 0.0
2017-Jan-23 03:33N 51°18' E 004°16'0 0.0
2017-Jan-23 02:33N 51°18' E 004°16'0 0.0
2017-Jan-23 01:33N 51°18' E 004°16'0 0.0
2017-Jan-23 00:33N 51°18' E 004°16'0 0.0
2017-Jan-22 23:33N 51°18' E 004°16'0 0.0
2017-Jan-22 22:33N 51°18' E 004°16'0 0.1
2017-Jan-22 21:33N 51°18' E 004°16'0 0.1
2017-Jan-22 20:33N 51°18' E 004°16'0 0.0
2017-Jan-22 19:33N 51°18' E 004°16'0 0.0
2017-Jan-22 18:33N 51°18' E 004°16'0 0.0
2017-Jan-22 17:33N 51°18' E 004°16'0 0.0
2017-Jan-22 16:33N 51°18' E 004°16'0 0.0
2017-Jan-22 15:33N 51°18' E 004°16'0 0.1
2017-Jan-22 14:33N 51°18' E 004°16'0 0.0
2017-Jan-22 13:32N 51°18' E 004°16'0 0.0
2017-Jan-22 12:32N 51°18' E 004°16'0 0.0
2017-Jan-22 11:32N 51°18' E 004°16'0 0.0
2017-Jan-22 10:32N 51°18' E 004°16'0 0.0
2017-Jan-22 09:32N 51°18' E 004°16'0 0.0
2017-Jan-22 08:32N 51°18' E 004°16'0 0.4
2017-Jan-22 07:34N 51°18' E 004°16'7 6.5
2017-Jan-22 06:33N 51°22' E 004°08'8 8.1
2017-Jan-22 05:33N 51°22' E 003°55'1111.3
2017-Jan-22 04:33N 51°26' E 003°38'1313.3
2017-Jan-22 03:33N 51°24' E 003°17'1110.6
2017-Jan-22 02:33N 51°29' E 003°02'1715.5
2017-Jan-22 01:29N 51°44' E 003°13'5 4.7
2017-Jan-22 00:31N 51°47' E 003°18'0 0.0
2017-Jan-21 23:25N 51°47' E 003°19'0 0.0
2017-Jan-21 21:25N 51°47' E 003°19'0 0.0
2017-Jan-21 19:31N 51°47' E 003°19'19 9.0
2017-Jan-21 17:23N 52°03' E 003°35'1215.0
2017-Jan-21 16:33N 52°02' E 003°55'7 7.3
2017-Jan-21 15:33N 51°58' E 004°04'0 0.0
2017-Jan-21 14:33N 51°58' E 004°04'0 0.0
2017-Jan-21 13:33N 51°58' E 004°04'0 0.0
2017-Jan-21 12:33N 51°58' E 004°04'0 0.0
2017-Jan-21 11:33N 51°58' E 004°04'0 0.0
2017-Jan-21 10:33N 51°58' E 004°04'0 0.0
2017-Jan-21 09:33N 51°58' E 004°04'0 0.0
2017-Jan-21 08:33N 51°58' E 004°04'0 0.0
2017-Jan-21 07:32N 51°58' E 004°04'0 0.0
2017-Jan-21 06:32N 51°58' E 004°04'0 0.0
2017-Jan-21 05:32N 51°58' E 004°04'0 0.0
2017-Jan-21 04:33N 51°58' E 004°04'0 0.0
2017-Jan-21 03:33N 51°58' E 004°04'0 0.0
2017-Jan-21 02:33N 51°58' E 004°04'0 0.0
2017-Jan-21 01:33N 51°58' E 004°04'0 0.0
2017-Jan-21 00:33N 51°58' E 004°04'0 0.0
2017-Jan-20 23:33N 51°58' E 004°04'0 0.0
2017-Jan-20 22:32N 51°58' E 004°04'0 0.0
2017-Jan-20 21:33N 51°58' E 004°04'0 0.0
2017-Jan-20 20:32N 51°58' E 004°04'0 0.0
2017-Jan-20 19:32N 51°58' E 004°04'1 1.4
2017-Jan-20 18:33N 51°59' E 004°04'1110.6
2017-Jan-20 17:33N 51°60' E 003°47'8 8.4
2017-Jan-20 16:33N 51°56' E 003°35'2 2.0
2017-Jan-20 15:33N 51°54' E 003°34'0 0.0
2017-Jan-20 14:33N 51°54' E 003°34'0 0.0
2017-Jan-20 13:33N 51°54' E 003°34'0 0.0
2017-Jan-20 12:33N 51°54' E 003°34'0 0.0
2017-Jan-20 11:33N 51°54' E 003°34'0 0.1
2017-Jan-20 10:34N 51°54' E 003°34'0 0.1
2017-Jan-20 09:34N 51°54' E 003°34'0 0.1
2017-Jan-20 08:34N 51°54' E 003°34'0 0.0
2017-Jan-20 07:33N 51°54' E 003°34'0 0.0
2017-Jan-20 06:33N 51°54' E 003°34'0 0.2
2017-Jan-20 05:34N 51°54' E 003°34'0 0.1
2017-Jan-20 04:34N 51°54' E 003°34'0 0.1
2017-Jan-20 03:33N 51°54' E 003°34'0 0.0
2017-Jan-20 02:33N 51°54' E 003°34'0 0.0
2017-Jan-20 01:34N 51°54' E 003°34'0 0.0
2017-Jan-20 00:34N 51°54' E 003°34'0 0.0
2017-Jan-19 23:33N 51°54' E 003°34'0 0.0
2017-Jan-19 22:33N 51°54' E 003°34'0 0.1
2017-Jan-19 21:33N 51°54' E 003°34'0 0.1
2017-Jan-19 20:33N 51°54' E 003°34'0 0.0
2017-Jan-19 19:34N 51°54' E 003°34'0 0.0
2017-Jan-19 18:34N 51°54' E 003°34'0 0.1
2017-Jan-19 17:33N 51°54' E 003°34'0 0.2
2017-Jan-19 16:33N 51°54' E 003°34'0 0.0
2017-Jan-19 15:33N 51°54' E 003°34'0 0.0
2017-Jan-19 14:34N 51°54' E 003°34'0 0.0
2017-Jan-19 13:34N 51°54' E 003°34'0 0.0
2017-Jan-19 12:34N 51°54' E 003°34'0 0.1
2017-Jan-19 11:34N 51°54' E 003°34'0 0.1
2017-Jan-19 10:29N 51°54' E 003°34'0 0.1
2017-Jan-19 09:32N 51°54' E 003°34'0 0.1
2017-Jan-19 08:32N 51°54' E 003°34'0 0.0
2017-Jan-19 07:32N 51°54' E 003°34'0 0.0
2017-Jan-19 06:32N 51°54' E 003°34'0 0.0
2017-Jan-19 05:32N 51°54' E 003°34'0 0.2
2017-Jan-19 04:32N 51°54' E 003°34'0 0.1
2017-Jan-19 03:32N 51°54' E 003°34'0 0.0
2017-Jan-19 02:32N 51°54' E 003°34'0 0.0
2017-Jan-19 01:32N 51°54' E 003°34'0 0.0
2017-Jan-19 00:32N 51°54' E 003°34'0 0.0
2017-Jan-18 23:32N 51°54' E 003°34'0 0.0
2017-Jan-18 22:32N 51°54' E 003°34'0 0.1
2017-Jan-18 21:32N 51°54' E 003°34'0 0.1
2017-Jan-18 20:33N 51°54' E 003°34'5 4.7
2017-Jan-18 19:33N 51°55' E 003°27'1616.4
2017-Jan-18 18:33N 51°51' E 003°01'1818.3
2017-Jan-18 17:33N 51°51' E 002°31'1818.3
2017-Jan-18 16:33N 51°51' E 002°02'1616.4
2017-Jan-18 15:33N 51°52' E 001°35'1110.7
2017-Jan-18 14:34N 51°55' E 001°19'3 2.7
2017-Jan-18 13:33N 51°58' E 001°17'0 0.0
2017-Jan-18 12:33N 51°58' E 001°17'0 0.0
2017-Jan-18 11:33N 51°58' E 001°17'0 0.0
2017-Jan-18 10:33N 51°58' E 001°17'0 0.0
2017-Jan-18 09:33N 51°58' E 001°17'0 0.0
2017-Jan-18 08:33N 51°58' E 001°17'0 0.0
2017-Jan-18 07:33N 51°58' E 001°17'0 0.0
2017-Jan-18 06:34N 51°58' E 001°17'4 3.7
2017-Jan-18 05:34N 51°56' E 001°22'1211.8
2017-Jan-18 04:33N 51°52' E 001°40'1312.5
2017-Jan-18 03:33N 51°41' E 001°49'1716.8
2017-Jan-18 02:33N 51°26' E 002°02'1313.4
2017-Jan-18 01:33N 51°12' E 001°59'1716.6
2017-Jan-18 00:33N 51°03' E 001°37'1514.8
2017-Jan-17 23:33N 50°51' E 001°24'3115.2
2017-Jan-17 21:30N 50°29' E 000°49'1816.1
2017-Jan-17 20:23N 50°24' E 000°22'1315.8
2017-Jan-17 19:33N 50°20' E 000°02'1515.5
2017-Jan-17 18:33N 50°16' W 000°21'1514.9
2017-Jan-17 17:33N 50°12' W 000°44'1414.5
2017-Jan-17 16:33N 50°08' W 001°05'1515.0
2017-Jan-17 15:34N 50°04' W 001°28'1514.9
2017-Jan-17 14:33N 49°60' W 001°50'1615.7
2017-Jan-17 13:34N 49°55' W 002°13'1916.7
2017-Jan-17 12:25N 49°49' W 002°42'1717.0
2017-Jan-17 11:25N 49°45' W 003°07'1617.3
2017-Jan-17 10:31N 49°37' W 003°28'3618.3
2017-Jan-17 08:33N 49°17' W 004°13'3718.5
2017-Jan-17 06:33N 48°58' W 005°02'1918.6
2017-Jan-17 05:33N 48°49' W 005°27'1817.9
2017-Jan-17 04:33N 48°37' W 005°46'57016.5
2017-Jan-15 18:04N 39°34' W 009°52'814.8
2017-Jan-15 17:33N 39°27' W 009°51'1515.0
2017-Jan-15 16:33N 39°12' W 009°51'1515.1
2017-Jan-15 15:33N 38°57' W 009°51'1515.2
2017-Jan-15 14:33N 38°42' W 009°50'1515.2
2017-Jan-15 13:33N 38°27' W 009°44'1515.2
2017-Jan-15 12:33N 38°17' W 009°30'1615.5
2017-Jan-15 11:33N 38°07' W 009°15'1616.3
2017-Jan-15 10:34N 37°57' W 008°58'6 6.0
2017-Jan-15 09:33N 37°56' W 008°51'0 0.0
2017-Jan-15 08:33N 37°56' W 008°51'0 0.0
2017-Jan-15 07:33N 37°56' W 008°51'0 0.0
2017-Jan-15 06:30N 37°56' W 008°51'0 0.0
2017-Jan-15 05:33N 37°56' W 008°51'0 0.0
2017-Jan-15 04:33N 37°56' W 008°51'0 0.0
2017-Jan-15 03:33N 37°56' W 008°51'0 0.0
2017-Jan-15 02:33N 37°56' W 008°51'0 0.0
2017-Jan-15 01:33N 37°56' W 008°51'0 0.0
2017-Jan-15 00:33N 37°56' W 008°51'0 0.2
2017-Jan-14 23:33N 37°56' W 008°51'4 4.3
2017-Jan-14 22:33N 37°52' W 008°52'1515.1
2017-Jan-14 21:33N 37°38' W 009°01'1716.6
2017-Jan-14 20:33N 37°23' W 009°10'32415.4
2017-Jan-13 23:33N 36°23' W 002°31'  

Dump ship's entire track history